createdAt,value
2022-11-06T00:01:07.315Z,11.27
2022-11-06T00:03:34.546Z,11.27
2022-11-06T00:06:25.458Z,11.25
2022-11-06T00:08:52.299Z,11.25
2022-11-06T00:11:18.937Z,11.22
2022-11-06T00:13:47.622Z,11.20
2022-11-06T00:16:14.925Z,11.20
2022-11-06T00:18:42.167Z,11.18
2022-11-06T00:21:11.595Z,11.16
2022-11-06T00:23:38.678Z,11.13
2022-11-06T00:26:09.918Z,11.11
2022-11-06T00:28:36.984Z,11.12
2022-11-06T00:31:08.750Z,11.10
2022-11-06T00:33:35.814Z,11.08
2022-11-06T00:36:06.024Z,11.06
2022-11-06T00:38:33.290Z,11.06
2022-11-06T00:41:04.864Z,11.03
2022-11-06T00:43:33.091Z,11.01
2022-11-06T00:46:04.446Z,10.96
2022-11-06T00:48:31.336Z,10.93
2022-11-06T00:51:17.337Z,10.93
2022-11-06T00:53:45.100Z,10.92
2022-11-06T00:56:17.405Z,10.92
2022-11-06T00:58:45.122Z,10.91
2022-11-06T01:01:15.920Z,10.88
2022-11-06T01:03:43.982Z,10.90
2022-11-06T01:06:16.473Z,10.87
2022-11-06T01:08:43.517Z,10.87
2022-11-06T01:11:16.214Z,10.83
2022-11-06T01:13:43.697Z,10.83
2022-11-06T01:16:13.856Z,10.80
2022-11-06T01:18:42.026Z,10.79
2022-11-06T01:21:14.739Z,10.75
2022-11-06T01:23:42.222Z,10.74
2022-11-06T01:26:11.062Z,10.72
2022-11-06T01:28:39.054Z,10.69
2022-11-06T01:31:08.345Z,10.68
2022-11-06T01:33:35.262Z,10.67
2022-11-06T01:36:02.004Z,10.67
2022-11-06T01:38:28.769Z,10.67
2022-11-06T01:40:55.593Z,10.65
2022-11-06T01:43:24.908Z,10.63
2022-11-06T01:45:54.062Z,10.62
2022-11-06T01:48:24.802Z,10.61
2022-11-06T01:50:56.686Z,10.56
2022-11-06T01:53:24.224Z,10.55
2022-11-06T01:55:54.173Z,10.53
2022-11-06T01:58:23.198Z,10.52
2022-11-06T02:00:50.260Z,10.49
2022-11-06T02:03:17.132Z,10.46
2022-11-06T02:05:44.114Z,10.41
2022-11-06T02:08:15.119Z,10.36
2022-11-06T02:10:43.031Z,10.36
2022-11-06T02:13:43.729Z,10.36
2022-11-06T02:16:38.854Z,10.35
2022-11-06T02:19:34.409Z,10.34
2022-11-06T02:22:19.841Z,10.33
2022-11-06T02:25:06.101Z,10.30
2022-11-06T02:27:33.787Z,10.27
2022-11-06T02:30:07.490Z,10.24
2022-11-06T02:32:45.530Z,10.23
2022-11-06T02:35:32.541Z,10.22
2022-11-06T02:38:04.259Z,10.23
2022-11-06T02:40:33.414Z,10.22
2022-11-06T02:43:04.089Z,10.22
2022-11-06T02:45:34.489Z,10.20
2022-11-06T02:48:02.394Z,10.22
2022-11-06T02:50:34.745Z,10.19
2022-11-06T02:53:04.343Z,10.19
2022-11-06T02:55:49.823Z,10.18
2022-11-06T02:58:39.180Z,10.17
2022-11-06T03:01:14.538Z,10.16
2022-11-06T03:03:47.311Z,10.15
2022-11-06T03:06:19.772Z,10.15
2022-11-06T03:08:54.839Z,10.15
2022-11-06T03:11:26.137Z,10.14
2022-11-06T03:14:20.805Z,10.12
2022-11-06T03:17:00.242Z,10.10
2022-11-06T03:19:34.208Z,10.06
2022-11-06T03:22:03.181Z,10.06
2022-11-06T03:24:34.529Z,10.02
2022-11-06T03:27:08.457Z,10.00
2022-11-06T03:29:41.303Z,9.98
2022-11-06T03:32:10.188Z,9.97
2022-11-06T03:34:42.323Z,9.93
2022-11-06T03:37:18.618Z,9.90
2022-11-06T03:39:54.649Z,9.89
2022-11-06T03:42:24.502Z,9.86
2022-11-06T03:45:00.977Z,9.86
2022-11-06T03:47:34.502Z,9.84
2022-11-06T03:50:08.247Z,9.82
2022-11-06T03:52:46.024Z,9.80
2022-11-06T03:55:18.783Z,9.78
2022-11-06T03:57:52.715Z,9.74
2022-11-06T04:00:20.541Z,9.71
2022-11-06T04:03:09.227Z,9.71
2022-11-06T04:05:44.718Z,9.68
2022-11-06T04:08:30.498Z,9.66
2022-11-06T04:11:18.198Z,9.65
2022-11-06T04:14:04.430Z,9.63
2022-11-06T04:16:35.363Z,9.62
2022-11-06T04:19:02.722Z,9.60
2022-11-06T04:21:47.491Z,9.58
2022-11-06T04:24:58.274Z,9.58
2022-11-06T04:27:57.301Z,9.55
2022-11-06T04:30:24.216Z,9.55
2022-11-06T04:33:25.798Z,9.53
2022-11-06T04:36:04.624Z,9.49
2022-11-06T04:38:31.249Z,9.47
2022-11-06T04:41:03.483Z,9.45
2022-11-06T04:43:33.172Z,9.43
2022-11-06T04:46:01.255Z,9.43
2022-11-06T04:48:28.381Z,9.42
2022-11-06T04:50:59.053Z,9.39
2022-11-06T04:53:25.698Z,9.45
2022-11-06T04:55:55.190Z,9.39
2022-11-06T04:58:22.168Z,9.35
2022-11-06T05:00:50.656Z,9.33
2022-11-06T05:03:19.043Z,9.32
2022-11-06T05:05:45.797Z,9.30
2022-11-06T05:08:20.042Z,9.27
2022-11-06T05:10:47.473Z,9.28
2022-11-06T05:13:15.133Z,9.27
2022-11-06T05:15:42.427Z,9.26
2022-11-06T05:18:09.107Z,9.24
2022-11-06T05:20:36.106Z,9.23
2022-11-06T05:23:02.825Z,9.22
2022-11-06T05:25:33.762Z,9.20
2022-11-06T05:28:01.292Z,9.18
2022-11-06T05:30:28.081Z,9.15
2022-11-06T05:32:55.180Z,9.15
2022-11-06T05:35:21.887Z,9.16
2022-11-06T05:37:48.680Z,9.14
2022-11-06T05:40:15.513Z,9.13
2022-11-06T05:42:44.073Z,9.10
2022-11-06T05:45:11.684Z,9.07
2022-11-06T05:47:41.809Z,9.07
2022-11-06T05:50:10.086Z,9.06
2022-11-06T05:52:36.914Z,9.06
2022-11-06T05:55:04.934Z,9.06
2022-11-06T05:57:32.722Z,9.04
2022-11-06T05:59:59.809Z,9.05
2022-11-06T06:02:26.728Z,9.03
2022-11-06T06:04:53.576Z,9.02
2022-11-06T06:07:20.354Z,9.01
2022-11-06T06:09:47.203Z,9.00
2022-11-06T06:12:13.880Z,8.98
2022-11-06T06:14:40.642Z,8.94
2022-11-06T06:17:07.469Z,8.92
2022-11-06T06:19:34.289Z,8.90
2022-11-06T06:22:00.934Z,8.90
2022-11-06T06:24:27.768Z,8.89
2022-11-06T06:26:54.462Z,8.89
2022-11-06T06:29:21.242Z,8.88
2022-11-06T06:31:49.927Z,8.87
2022-11-06T06:34:16.702Z,8.87
2022-11-06T06:36:43.350Z,8.87
2022-11-06T06:39:10.347Z,8.86
2022-11-06T06:41:37.152Z,8.87
2022-11-06T06:44:03.959Z,8.85
2022-11-06T06:46:30.649Z,8.62
2022-11-06T06:48:57.364Z,8.22
2022-11-06T06:51:24.389Z,7.89
2022-11-06T06:53:51.224Z,7.70
2022-11-06T06:56:17.929Z,7.55
2022-11-06T06:58:44.653Z,7.40
2022-11-06T07:01:11.452Z,7.24
2022-11-06T07:03:38.591Z,7.12
2022-11-06T07:06:06.189Z,6.99
2022-11-06T07:08:33.218Z,7.01
2022-11-06T07:11:04.577Z,6.97
2022-11-06T07:13:35.920Z,6.90
2022-11-06T07:16:08.416Z,6.93
2022-11-06T07:18:36.085Z,6.94
2022-11-06T07:21:07.443Z,6.93
2022-11-06T07:23:37.912Z,6.98
2022-11-06T07:26:05.309Z,7.02
2022-11-06T07:28:32.565Z,7.07
2022-11-06T07:31:03.706Z,7.11
2022-11-06T07:33:30.685Z,7.15
2022-11-06T07:36:04.908Z,7.19
2022-11-06T07:38:34.707Z,7.23
2022-11-06T07:41:03.379Z,7.15
2022-11-06T07:43:31.091Z,7.12
2022-11-06T07:46:02.343Z,7.25
2022-11-06T07:48:29.970Z,7.34
2022-11-06T07:50:56.980Z,7.46
2022-11-06T07:53:24.528Z,7.48
2022-11-06T07:55:52.356Z,7.48
2022-11-06T07:58:19.869Z,7.60
2022-11-06T08:00:51.498Z,7.66
2022-11-06T08:03:18.590Z,7.73
2022-11-06T08:05:45.543Z,7.80
2022-11-06T08:08:13.004Z,7.75
2022-11-06T08:10:40.658Z,7.56
2022-11-06T08:13:07.510Z,7.49
2022-11-06T08:15:34.340Z,7.62
2022-11-06T08:18:01.358Z,7.83
2022-11-06T08:20:28.010Z,7.97
2022-11-06T08:22:59.090Z,8.05
2022-11-06T08:25:26.025Z,8.12
2022-11-06T08:27:58.573Z,8.18
2022-11-06T08:30:26.285Z,8.26
2022-11-06T08:32:53.426Z,8.34
2022-11-06T08:35:20.349Z,8.48
2022-11-06T08:37:47.176Z,8.55
2022-11-06T08:40:14.018Z,8.56
2022-11-06T08:42:40.861Z,8.57
2022-11-06T08:45:08.256Z,8.45
2022-11-06T08:47:34.984Z,8.19
2022-11-06T08:50:01.786Z,7.87
2022-11-06T08:52:33.751Z,7.69
2022-11-06T08:55:00.960Z,7.67
2022-11-06T08:57:28.222Z,7.63
2022-11-06T08:59:54.908Z,7.78
2022-11-06T09:02:21.781Z,7.90
2022-11-06T09:04:48.522Z,8.16
2022-11-06T09:07:16.058Z,8.41
2022-11-06T09:09:42.819Z,8.72
2022-11-06T09:12:09.497Z,9.01
2022-11-06T09:14:36.703Z,9.22
2022-11-06T09:17:03.417Z,9.39
2022-11-06T09:19:30.277Z,9.60
2022-11-06T09:21:56.920Z,9.77
2022-11-06T09:24:43.191Z,9.79
2022-11-06T09:27:10.385Z,9.69
2022-11-06T09:29:40.832Z,9.75
2022-11-06T09:32:07.798Z,9.84
2022-11-06T09:34:34.450Z,9.94
2022-11-06T09:37:04.368Z,10.01
2022-11-06T09:39:31.077Z,10.10
2022-11-06T09:42:01.409Z,10.16
2022-11-06T09:44:34.331Z,10.17
2022-11-06T09:47:05.280Z,10.25
2022-11-06T09:49:47.527Z,10.39
2022-11-06T09:52:36.050Z,10.47
2022-11-06T09:55:10.052Z,10.49
2022-11-06T09:57:41.613Z,10.57
2022-11-06T10:00:12.611Z,10.70
2022-11-06T10:02:45.849Z,10.81
2022-11-06T10:05:32.753Z,10.98
2022-11-06T10:08:02.308Z,11.08
2022-11-06T10:10:36.098Z,11.19
2022-11-06T10:13:02.835Z,11.35
2022-11-06T10:15:54.230Z,11.50
2022-11-06T10:18:36.285Z,11.58
2022-11-06T10:21:29.902Z,11.68
2022-11-06T10:24:05.259Z,11.74
2022-11-06T10:26:37.969Z,11.76
2022-11-06T10:29:16.515Z,11.72
2022-11-06T10:32:01.483Z,11.75
2022-11-06T10:34:30.831Z,11.73
2022-11-06T10:37:37.714Z,11.80
2022-11-06T10:40:06.172Z,11.86
2022-11-06T10:42:38.371Z,11.96
2022-11-06T10:45:14.781Z,12.09
2022-11-06T10:47:52.665Z,12.23
2022-11-06T10:50:19.596Z,12.35
2022-11-06T10:52:57.414Z,12.44
2022-11-06T10:55:53.703Z,12.52
2022-11-06T10:58:24.937Z,12.59
2022-11-06T11:01:00.408Z,12.59
2022-11-06T11:03:34.514Z,12.44
2022-11-06T11:06:04.261Z,12.51
2022-11-06T11:08:31.201Z,12.57
2022-11-06T11:11:15.685Z,12.66
2022-11-06T11:13:47.401Z,12.75
2022-11-06T11:16:27.483Z,12.83
2022-11-06T11:18:54.221Z,12.90
2022-11-06T11:21:27.979Z,12.90
2022-11-06T11:24:00.777Z,12.86
2022-11-06T11:26:29.744Z,12.84
2022-11-06T11:28:59.146Z,12.88
2022-11-06T11:31:31.455Z,12.96
2022-11-06T11:34:01.438Z,13.07
2022-11-06T11:37:08.235Z,13.18
2022-11-06T11:39:37.365Z,13.18
2022-11-06T11:42:30.521Z,13.28
2022-11-06T11:45:09.822Z,13.26
2022-11-06T11:47:38.207Z,13.26
2022-11-06T11:50:26.546Z,13.22
2022-11-06T11:53:10.495Z,13.30
2022-11-06T11:55:46.200Z,13.35
2022-11-06T11:58:18.214Z,13.36
2022-11-06T12:00:59.027Z,13.40
2022-11-06T12:03:28.761Z,13.42
2022-11-06T12:06:06.640Z,13.48
2022-11-06T12:08:33.802Z,13.57
2022-11-06T12:11:05.162Z,13.65
2022-11-06T12:13:31.921Z,13.68
2022-11-06T12:16:14.536Z,13.67
2022-11-06T12:18:45.235Z,13.77
2022-11-06T12:21:12.006Z,13.88
2022-11-06T12:23:51.394Z,13.87
2022-11-06T12:26:35.408Z,14.01
2022-11-06T12:29:25.309Z,14.09
2022-11-06T12:32:10.162Z,14.15
2022-11-06T12:34:44.286Z,14.22
2022-11-06T12:37:16.494Z,14.32
2022-11-06T12:39:45.191Z,14.39
2022-11-06T12:42:12.876Z,14.41
2022-11-06T12:44:39.742Z,14.37
2022-11-06T12:47:39.466Z,14.35
2022-11-06T12:50:29.136Z,14.31
2022-11-06T12:53:16.244Z,14.31
2022-11-06T12:55:58.806Z,14.16
2022-11-06T12:59:06.067Z,14.01
2022-11-06T13:01:43.457Z,13.98
2022-11-06T13:04:10.815Z,13.94
2022-11-06T13:06:58.925Z,13.85
2022-11-06T13:09:35.533Z,13.70
2022-11-06T13:12:12.993Z,13.60
2022-11-06T13:14:59.283Z,13.54
2022-11-06T13:17:35.543Z,13.48
2022-11-06T13:20:04.211Z,13.48
2022-11-06T13:22:39.816Z,13.52
2022-11-06T13:25:32.888Z,13.47
2022-11-06T13:28:04.654Z,13.34
2022-11-06T13:30:32.250Z,13.31
2022-11-06T13:33:07.812Z,13.30
2022-11-06T13:35:40.113Z,13.25
2022-11-06T13:38:07.682Z,13.28
2022-11-06T13:40:39.923Z,13.40
2022-11-06T13:43:12.378Z,13.56
2022-11-06T13:45:49.374Z,13.70
2022-11-06T13:48:44.158Z,13.81
2022-11-06T13:51:36.217Z,13.91
2022-11-06T13:54:13.927Z,13.95
2022-11-06T13:57:24.932Z,13.94
2022-11-06T14:00:03.396Z,13.91
2022-11-06T14:02:45.377Z,13.94
2022-11-06T14:05:27.139Z,13.94
2022-11-06T14:08:01.643Z,13.95
2022-11-06T14:10:37.212Z,13.82
2022-11-06T14:13:05.372Z,13.65
2022-11-06T14:15:35.593Z,13.58
2022-11-06T14:18:02.489Z,13.62
2022-11-06T14:20:39.586Z,13.66
2022-11-06T14:23:31.194Z,13.73
2022-11-06T14:26:03.573Z,13.76
2022-11-06T14:28:33.165Z,13.65
2022-11-06T14:31:17.957Z,13.54
2022-11-06T14:33:51.511Z,13.44
2022-11-06T14:36:24.417Z,13.26
2022-11-06T14:38:52.520Z,13.24
2022-11-06T14:41:34.670Z,13.10
2022-11-06T14:44:18.857Z,12.97
2022-11-06T14:46:50.755Z,12.90
2022-11-06T14:49:42.268Z,12.95
2022-11-06T14:52:12.717Z,12.99
2022-11-06T14:54:42.011Z,12.91
2022-11-06T14:57:15.429Z,12.86
2022-11-06T14:59:43.084Z,12.79
2022-11-06T15:02:21.098Z,12.51
2022-11-06T15:05:00.027Z,12.26
2022-11-06T15:10:42.713Z,12.29
2022-11-06T15:13:13.195Z,12.34
2022-11-06T15:15:42.107Z,12.33
2022-11-06T15:18:15.207Z,12.25
2022-11-06T15:20:42.734Z,12.25
2022-11-06T15:23:25.387Z,12.26
2022-11-06T15:26:02.509Z,12.23
2022-11-06T15:28:34.354Z,12.19
2022-11-06T15:31:33.557Z,12.11
2022-11-06T15:34:04.326Z,12.00
2022-11-06T15:36:37.730Z,11.99
2022-11-06T15:39:26.801Z,11.90
2022-11-06T15:41:53.564Z,11.86
2022-11-06T15:44:22.338Z,11.79
2022-11-06T15:46:57.392Z,11.73
2022-11-06T15:49:25.415Z,11.73
2022-11-06T15:51:57.918Z,11.71
2022-11-06T15:54:38.301Z,11.71
2022-11-06T15:57:19.354Z,11.62
2022-11-06T15:59:46.272Z,11.54
2022-11-06T16:02:22.706Z,11.47
2022-11-06T16:04:50.172Z,11.50
2022-11-06T16:07:18.840Z,11.45
2022-11-06T16:09:46.606Z,11.47
2022-11-06T16:12:15.614Z,11.47
2022-11-06T16:14:44.331Z,11.48
2022-11-06T16:17:25.170Z,11.54
2022-11-06T16:19:52.214Z,11.65
2022-11-06T16:22:21.114Z,11.61
2022-11-06T16:24:56.396Z,11.61
2022-11-06T16:27:24.605Z,11.70
2022-11-06T16:29:57.896Z,11.79
2022-11-06T16:32:27.283Z,11.86
2022-11-06T16:34:55.297Z,11.99
2022-11-06T16:37:27.744Z,12.10
2022-11-06T16:39:55.979Z,12.19
2022-11-06T16:42:22.635Z,12.24
2022-11-06T16:44:51.068Z,12.30
2022-11-06T16:47:19.694Z,12.36
2022-11-06T16:49:53.547Z,12.40
2022-11-06T16:52:33.934Z,12.45
2022-11-06T16:55:00.765Z,12.49
2022-11-06T16:57:49.822Z,12.52
2022-11-06T17:00:21.401Z,12.55
2022-11-06T17:03:01.897Z,12.59
2022-11-06T17:05:33.592Z,12.63
2022-11-06T17:08:09.136Z,12.65
2022-11-06T17:10:37.053Z,12.68
2022-11-06T17:13:26.979Z,12.70
2022-11-06T17:15:59.759Z,12.72
2022-11-06T17:18:30.320Z,12.75
2022-11-06T17:20:57.953Z,12.87
2022-11-06T17:23:25.896Z,12.84
2022-11-06T17:25:55.762Z,12.82
2022-11-06T17:28:22.885Z,12.85
2022-11-06T17:30:50.106Z,12.87
2022-11-06T17:33:17.146Z,12.88
2022-11-06T17:35:47.190Z,12.89
2022-11-06T17:38:14.565Z,12.91
2022-11-06T17:40:42.578Z,12.93
2022-11-06T17:43:09.959Z,12.95
2022-11-06T17:45:38.194Z,12.96
2022-11-06T17:48:05.602Z,12.98
2022-11-06T17:50:52.273Z,12.99
2022-11-06T17:53:19.069Z,13.02
2022-11-06T17:55:45.704Z,13.01
2022-11-06T17:58:12.695Z,13.02
2022-11-06T18:00:39.727Z,13.03
2022-11-06T18:03:07.508Z,13.05
2022-11-06T18:05:41.481Z,13.06
2022-11-06T18:08:12.353Z,13.09
2022-11-06T18:10:39.643Z,13.10
2022-11-06T18:13:07.199Z,13.11
2022-11-06T18:15:35.163Z,13.14
2022-11-06T18:18:02.128Z,13.17
2022-11-06T18:20:28.805Z,13.19
2022-11-06T18:22:55.629Z,13.21
2022-11-06T18:25:22.261Z,13.23
2022-11-06T18:27:48.995Z,13.25
2022-11-06T18:30:15.745Z,13.26
2022-11-06T18:32:42.472Z,13.26
2022-11-06T18:35:09.449Z,13.27
2022-11-06T18:37:36.147Z,13.28
2022-11-06T18:40:03.350Z,13.30
2022-11-06T18:42:30.217Z,13.32
2022-11-06T18:44:56.860Z,13.33
2022-11-06T18:47:23.646Z,13.34
2022-11-06T18:49:50.458Z,13.36
2022-11-06T18:52:32.438Z,13.40
2022-11-06T18:55:01.023Z,13.42
2022-11-06T18:57:30.195Z,13.43
2022-11-06T18:59:56.963Z,13.46
2022-11-06T19:02:23.894Z,13.47
2022-11-06T19:04:50.814Z,13.48
2022-11-06T19:07:17.549Z,13.50
2022-11-06T19:09:44.406Z,13.52
2022-11-06T19:12:11.029Z,13.53
2022-11-06T19:14:37.832Z,13.52
2022-11-06T19:17:04.819Z,13.53
2022-11-06T19:19:32.119Z,13.55
2022-11-06T19:21:58.922Z,13.56
2022-11-06T19:24:25.650Z,13.57
2022-11-06T19:26:52.456Z,13.57
2022-11-06T19:29:19.188Z,13.60
2022-11-06T19:31:46.318Z,13.61
2022-11-06T19:34:13.395Z,13.62
2022-11-06T19:36:40.154Z,13.65
2022-11-06T19:39:07.467Z,13.66
2022-11-06T19:41:34.432Z,13.67
2022-11-06T19:44:01.236Z,13.69
2022-11-06T19:46:34.037Z,13.70
2022-11-06T19:49:03.778Z,13.72
2022-11-06T19:51:30.934Z,13.75
2022-11-06T19:53:57.662Z,13.75
2022-11-06T19:56:24.422Z,13.75
2022-11-06T19:58:51.662Z,13.78
2022-11-06T20:01:19.604Z,13.80
2022-11-06T20:03:46.632Z,13.79
2022-11-06T20:06:14.038Z,13.77
2022-11-06T20:08:40.811Z,13.79
2022-11-06T20:11:12.949Z,13.81
2022-11-06T20:13:43.325Z,13.83
2022-11-06T20:16:12.574Z,13.87
2022-11-06T20:18:39.529Z,13.90
2022-11-06T20:21:08.626Z,13.89
2022-11-06T20:23:36.297Z,13.92
2022-11-06T20:26:04.735Z,13.94
2022-11-06T20:28:32.287Z,13.96
2022-11-06T20:30:59.157Z,13.97
2022-11-06T20:33:26.385Z,13.98
2022-11-06T20:35:53.153Z,14.00
2022-11-06T20:38:19.856Z,14.00
2022-11-06T20:40:46.658Z,14.01
2022-11-06T20:43:13.575Z,14.01
2022-11-06T20:45:40.676Z,14.01
2022-11-06T20:48:07.987Z,14.02
2022-11-06T20:50:35.009Z,14.00
2022-11-06T20:53:01.779Z,14.04
2022-11-06T20:55:29.113Z,14.04
2022-11-06T20:57:55.850Z,14.04
2022-11-06T21:00:22.657Z,14.04
2022-11-06T21:02:49.516Z,14.04
2022-11-06T21:05:16.370Z,14.06
2022-11-06T21:07:43.053Z,14.05
2022-11-06T21:10:12.687Z,14.05
2022-11-06T21:12:39.491Z,14.05
2022-11-06T21:15:06.880Z,14.07
2022-11-06T21:17:33.596Z,14.07
2022-11-06T21:20:00.296Z,14.08
2022-11-06T21:22:27.127Z,14.08
2022-11-06T21:24:53.778Z,14.09
2022-11-06T21:27:20.541Z,14.11
2022-11-06T21:29:47.438Z,14.10
2022-11-06T21:32:14.167Z,14.11
2022-11-06T21:34:40.834Z,14.13
2022-11-06T21:37:07.561Z,14.13
2022-11-06T21:39:36.430Z,14.13
2022-11-06T21:42:04.992Z,14.12
2022-11-06T21:44:32.145Z,14.13
2022-11-06T21:46:58.882Z,14.13
2022-11-06T21:49:25.605Z,14.13
2022-11-06T21:51:52.360Z,14.14
2022-11-06T21:54:37.667Z,14.16
2022-11-06T21:57:04.439Z,14.14
2022-11-06T21:59:31.265Z,14.14
2022-11-06T22:01:58.169Z,14.14
2022-11-06T22:04:25.052Z,14.15
2022-11-06T22:06:52.501Z,14.16
2022-11-06T22:09:24.416Z,14.17
2022-11-06T22:11:52.201Z,14.14
2022-11-06T22:14:18.857Z,14.16
2022-11-06T22:16:47.134Z,14.17
2022-11-06T22:19:15.380Z,14.16
2022-11-06T22:21:42.384Z,14.18
2022-11-06T22:24:11.312Z,14.18
2022-11-06T22:26:38.029Z,14.18
2022-11-06T22:29:11.373Z,14.16
2022-11-06T22:31:38.054Z,14.18
2022-11-06T22:34:04.813Z,14.17
2022-11-06T22:36:32.022Z,14.18
2022-11-06T22:38:59.975Z,14.19
2022-11-06T22:41:26.812Z,14.19
2022-11-06T22:43:58.777Z,14.20
2022-11-06T22:46:26.943Z,14.22
2022-11-06T22:48:54.016Z,14.22
2022-11-06T22:51:23.266Z,14.24
2022-11-06T22:53:50.571Z,14.24
2022-11-06T22:56:17.618Z,14.24
2022-11-06T22:58:44.461Z,14.23
2022-11-06T23:01:11.601Z,14.23
2022-11-06T23:03:40.173Z,14.23
2022-11-06T23:06:08.689Z,14.25
2022-11-06T23:08:37.062Z,14.24
2022-11-06T23:11:12.519Z,14.25
2022-11-06T23:13:39.798Z,14.27
2022-11-06T23:16:14.483Z,14.25
2022-11-06T23:18:41.486Z,14.25
2022-11-06T23:21:15.841Z,14.24
2022-11-06T23:23:43.556Z,14.25
2022-11-06T23:26:12.086Z,14.25
2022-11-06T23:28:38.814Z,14.26
2022-11-06T23:31:07.278Z,14.25
2022-11-06T23:33:34.382Z,14.26
2022-11-06T23:36:08.892Z,14.26
2022-11-06T23:38:36.927Z,14.28
2022-11-06T23:41:28.851Z,14.26
2022-11-06T23:43:56.173Z,14.28
2022-11-06T23:46:29.141Z,14.29
2022-11-06T23:48:56.426Z,14.30
2022-11-06T23:51:24.053Z,14.28
2022-11-06T23:53:51.223Z,14.31
2022-11-06T23:56:17.933Z,14.31
2022-11-06T23:58:45.647Z,14.30
